Wetterdaten: Woche 28.01.19 - 03.02.19 (KW5)
Datum Zeit Temp. A. Feuchte A. Luftdruck Regen Wind Richtung Taupunkt Windchill Windben
28.01.2019 00:00 -1,9 C 82 % 993,9 hPa 0,0 l/m 0,0 km/h N -4,6 C -1,9 C 0,0 km/h
28.01.2019 01:00 -1,9 C 82 % 993,4 hPa 0,0 l/m 0,0 km/h N -4,6 C -1,9 C 0,0 km/h
28.01.2019 02:00 -1,9 C 82 % 993,2 hPa 0,0 l/m 0,0 km/h N -4,6 C -1,9 C 0,0 km/h
28.01.2019 03:00 -1,9 C 82 % 993,3 hPa 0,0 l/m 0,0 km/h N -4,6 C -1,9 C 0,0 km/h
28.01.2019 04:00 -1,9 C 82 % 993,1 hPa 0,0 l/m 0,0 km/h N -4,6 C -1,9 C 0,0 km/h
28.01.2019 05:00 -1,9 C 82 % 993,3 hPa 0,0 l/m 0,0 km/h N -4,6 C -1,9 C 0,0 km/h
28.01.2019 06:00 -1,9 C 82 % 993,6 hPa 0,0 l/m 0,0 km/h N -4,6 C -1,9 C 0,0 km/h
28.01.2019 07:00 -1,9 C 82 % 993,4 hPa 0,0 l/m 0,0 km/h N -4,6 C -1,9 C 0,0 km/h
28.01.2019 08:00 -1,9 C 82 % 993,7 hPa 0,0 l/m 0,0 km/h N -4,6 C -1,9 C 0,0 km/h
28.01.2019 09:00 2,3 C 83 % 994,6 hPa 0,8 l/m 14,7 km/h N -0,3 C -4,0 C 41,4 km/h
28.01.2019 10:00 2,3 C 83 % 995,4 hPa 2,1 l/m 13,9 km/h N -0,3 C -3,4 C 20,9 km/h
28.01.2019 11:00 2,4 C 82 % 995,0 hPa 0,0 l/m 14,5 km/h N -0,4 C -3,8 C 14,5 km/h
28.01.2019 12:00 3,5 C 77 % 995,1 hPa 2,3 l/m 17,4 km/h N -0,1 C -3,9 C 20,5 km/h
28.01.2019 13:00 3,5 C 77 % 995,5 hPa 0,0 l/m 17,7 km/h N -0,1 C -4,1 C 17,7 km/h
28.01.2019 14:00 0,0 C 0 % 995,6 hPa 0,0 l/m 0,0 km/h N -60,0 C 0,0 C 0,0 km/h
28.01.2019 15:00 0,0 C 0 % 996,2 hPa 0,0 l/m 0,0 km/h N -60,0 C 0,0 C 0,0 km/h
28.01.2019 16:00 0,0 C 0 % 996,5 hPa 0,0 l/m 0,0 km/h N -60,0 C 0,0 C 0,0 km/h
28.01.2019 17:00 0,0 C 0 % 996,8 hPa 0,0 l/m 0,0 km/h N -60,0 C 0,0 C 0,0 km/h
28.01.2019 18:00 0,0 C 0 % 997,0 hPa 0,0 l/m 0,0 km/h N -60,0 C 0,0 C 0,0 km/h
28.01.2019 19:00 0,0 C 0 % 997,4 hPa 0,0 l/m 0,0 km/h N -60,0 C 0,0 C 0,0 km/h
28.01.2019 20:00 0,0 C 0 % 998,8 hPa 0,0 l/m 0,0 km/h N -60,0 C 0,0 C 0,0 km/h
28.01.2019 21:00 0,0 C 0 % 998,6 hPa 0,0 l/m 0,0 km/h N -60,0 C 0,0 C 0,0 km/h
28.01.2019 22:00 0,0 C 0 % 998,6 hPa 0,0 l/m 0,0 km/h N -60,0 C 0,0 C 0,0 km/h
28.01.2019 23:00 0,0 C 0 % 1000,0 hPa 0,0 l/m 0,0 km/h N -60,0 C 0,0 C 0,0 km/h
29.01.2019 00:00 0,0 C 0 % 999,7 hPa 0,0 l/m 0,0 km/h N -60,0 C 0,0 C 0,0 km/h
29.01.2019 01:00 0,0 C 0 % 999,5 hPa 0,0 l/m 0,0 km/h N -60,0 C 0,0 C 0,0 km/h
29.01.2019 02:00 0,0 C 0 % 1000,1 hPa 0,0 l/m 0,0 km/h N -60,0 C 0,0 C 0,0 km/h
29.01.2019 03:00 0,0 C 0 % 1000,9 hPa 0,0 l/m 0,0 km/h N -60,0 C 0,0 C 0,0 km/h
29.01.2019 04:00 0,0 C 0 % 1001,8 hPa 0,0 l/m 0,0 km/h N -60,0 C 0,0 C 0,0 km/h
29.01.2019 05:00 0,0 C 0 % 1002,3 hPa 0,0 l/m 0,0 km/h N -60,0 C 0,0 C 0,0 km/h
29.01.2019 06:00 0,0 C 0 % 1003,3 hPa 0,0 l/m 0,0 km/h N -60,0 C 0,0 C 0,0 km/h
29.01.2019 07:00 0,0 C 0 % 1004,1 hPa 0,0 l/m 0,0 km/h N -60,0 C 0,0 C 0,0 km/h
29.01.2019 08:00 0,0 C 0 % 1004,8 hPa 0,0 l/m 0,0 km/h N -60,0 C 0,0 C 0,0 km/h
29.01.2019 09:00 0,0 C 0 % 1005,8 hPa 0,0 l/m 0,0 km/h N -60,0 C 0,0 C 0,0 km/h
29.01.2019 10:00 0,0 C 0 % 1006,4 hPa 0,0 l/m 0,0 km/h N -60,0 C 0,0 C 0,0 km/h
29.01.2019 11:00 0,0 C 0 % 1006,9 hPa 0,0 l/m 0,0 km/h N -60,0 C 0,0 C 0,0 km/h
29.01.2019 12:00 0,0 C 0 % 1006,4 hPa 0,0 l/m 0,0 km/h N -60,0 C 0,0 C 0,0 km/h
29.01.2019 13:00 0,0 C 0 % 1006,3 hPa 0,0 l/m 0,0 km/h N -60,0 C 0,0 C 0,0 km/h
29.01.2019 14:00 0,0 C 0 % 1006,0 hPa 0,0 l/m 0,0 km/h N -60,0 C 0,0 C 0,0 km/h
29.01.2019 15:00 0,0 C 0 % 1006,2 hPa 0,0 l/m 0,0 km/h N -60,0 C 0,0 C 0,0 km/h
29.01.2019 16:00 0,0 C 0 % 1006,3 hPa 0,0 l/m 0,0 km/h N -60,0 C 0,0 C 0,0 km/h
29.01.2019 17:00 0,0 C 0 % 1006,3 hPa 0,0 l/m 0,0 km/h N -60,0 C 0,0 C 0,0 km/h
29.01.2019 18:00 0,0 C 0 % 1006,1 hPa 0,0 l/m 0,0 km/h N -60,0 C 0,0 C 0,0 km/h
29.01.2019 19:00 0,0 C 0 % 1006,0 hPa 0,0 l/m 0,0 km/h N -60,0 C 0,0 C 0,0 km/h
29.01.2019 20:00 0,0 C 0 % 1006,0 hPa 0,0 l/m 0,0 km/h N -60,0 C 0,0 C 0,0 km/h
29.01.2019 21:00 0,0 C 0 % 1005,6 hPa 0,0 l/m 0,0 km/h N -60,0 C 0,0 C 0,0 km/h
29.01.2019 22:00 0,0 C 0 % 1005,5 hPa 0,0 l/m 0,0 km/h N -60,0 C 0,0 C 0,0 km/h
29.01.2019 23:00 0,0 C 0 % 1004,9 hPa 0,0 l/m 0,0 km/h N -60,0 C 0,0 C 0,0 km/h
30.01.2019 00:00 0,0 C 0 % 1004,2 hPa 0,0 l/m 0,0 km/h N -60,0 C 0,0 C 0,0 km/h
30.01.2019 01:00 0,0 C 0 % 1003,2 hPa 0,0 l/m 0,0 km/h N -60,0 C 0,0 C 0,0 km/h
30.01.2019 02:00 0,0 C 0 % 1002,5 hPa 0,0 l/m 0,0 km/h N -60,0 C 0,0 C 0,0 km/h
30.01.2019 03:00 0,0 C 0 % 1001,7 hPa 0,0 l/m 0,0 km/h N -60,0 C 0,0 C 0,0 km/h
30.01.2019 04:00 0,0 C 0 % 1000,8 hPa 0,0 l/m 0,0 km/h N -60,0 C 0,0 C 0,0 km/h
30.01.2019 05:00 0,0 C 0 % 1000,5 hPa 0,0 l/m 0,0 km/h N -60,0 C 0,0 C 0,0 km/h
30.01.2019 06:00 0,0 C 0 % 1000,0 hPa 0,0 l/m 0,0 km/h N -60,0 C 0,0 C 0,0 km/h
30.01.2019 07:00 0,0 C 0 % 999,8 hPa 0,0 l/m 0,0 km/h N -60,0 C 0,0 C 0,0 km/h
30.01.2019 08:00 0,0 C 0 % 999,7 hPa 0,0 l/m 0,0 km/h N -60,0 C 0,0 C 0,0 km/h
30.01.2019 09:00 0,0 C 0 % 999,5 hPa 0,0 l/m 0,0 km/h N -60,0 C 0,0 C 0,0 km/h
30.01.2019 10:00 0,0 C 0 % 999,4 hPa 0,0 l/m 0,0 km/h N -60,0 C 0,0 C 0,0 km/h
30.01.2019 11:00 0,0 C 0 % 999,1 hPa 0,0 l/m 0,0 km/h N -60,0 C 0,0 C 0,0 km/h
30.01.2019 12:00 0,0 C 0 % 998,9 hPa 0,0 l/m 0,0 km/h N -60,0 C 0,0 C 0,0 km/h
30.01.2019 13:00 0,0 C 0 % 998,9 hPa 0,0 l/m 0,0 km/h N -60,0 C 0,0 C 0,0 km/h
30.01.2019 14:00 0,0 C 0 % 998,9 hPa 0,0 l/m 0,0 km/h N -60,0 C 0,0 C 0,0 km/h
30.01.2019 15:00 0,0 C 0 % 999,1 hPa 0,0 l/m 0,0 km/h N -60,0 C 0,0 C 0,0 km/h
30.01.2019 16:00 0,0 C 0 % 999,4 hPa 0,0 l/m 0,0 km/h N -60,0 C 0,0 C 0,0 km/h
30.01.2019 17:00 0,0 C 0 % 999,9 hPa 0,0 l/m 0,0 km/h N -60,0 C 0,0 C 0,0 km/h
30.01.2019 18:00 0,0 C 0 % 1000,2 hPa 0,0 l/m 0,0 km/h N -60,0 C 0,0 C 0,0 km/h
30.01.2019 19:00 0,0 C 0 % 1000,6 hPa 0,0 l/m 0,0 km/h N -60,0 C 0,0 C 0,0 km/h
30.01.2019 20:00 0,0 C 0 % 1000,9 hPa 0,0 l/m 0,0 km/h N -60,0 C 0,0 C 0,0 km/h
30.01.2019 21:00 0,0 C 0 % 1001,2 hPa 0,0 l/m 0,0 km/h N -60,0 C 0,0 C 0,0 km/h
30.01.2019 22:00 0,0 C 0 % 1001,4 hPa 0,0 l/m 0,0 km/h N -60,0 C 0,0 C 0,0 km/h
30.01.2019 23:00 0,0 C 0 % 1001,3 hPa 0,0 l/m 0,0 km/h N -60,0 C 0,0 C 0,0 km/h
31.01.2019 00:00 0,0 C 0 % 1001,3 hPa 0,0 l/m 0,0 km/h N -60,0 C 0,0 C 0,0 km/h
31.01.2019 01:00 0,0 C 0 % 1001,2 hPa 0,0 l/m 0,0 km/h N -60,0 C 0,0 C 0,0 km/h
31.01.2019 02:00 0,0 C 0 % 1001,3 hPa 0,0 l/m 0,0 km/h N -60,0 C 0,0 C 0,0 km/h
31.01.2019 03:00 0,0 C 0 % 1001,3 hPa 0,0 l/m 0,0 km/h N -60,0 C 0,0 C 0,0 km/h
31.01.2019 04:00 0,0 C 0 % 1001,1 hPa 0,0 l/m 0,0 km/h N -60,0 C 0,0 C 0,0 km/h
31.01.2019 05:00 0,0 C 0 % 1001,0 hPa 0,0 l/m 0,0 km/h N -60,0 C 0,0 C 0,0 km/h
31.01.2019 06:00 0,0 C 0 % 1001,0 hPa 0,0 l/m 0,0 km/h N -60,0 C 0,0 C 0,0 km/h
31.01.2019 07:00 0,0 C 0 % 1001,2 hPa 0,0 l/m 0,0 km/h N -60,0 C 0,0 C 0,0 km/h
31.01.2019 08:00 0,0 C 0 % 1001,7 hPa 0,0 l/m 0,0 km/h N -60,0 C 0,0 C 0,0 km/h
31.01.2019 09:00 0,0 C 0 % 1001,8 hPa 0,0 l/m 0,0 km/h N -60,0 C 0,0 C 0,0 km/h
31.01.2019 10:00 0,0 C 0 % 1002,1 hPa 0,0 l/m 0,0 km/h N -60,0 C 0,0 C 0,0 km/h
31.01.2019 11:00 0,0 C 0 % 1002,1 hPa 0,0 l/m 0,0 km/h N -60,0 C 0,0 C 0,0 km/h
31.01.2019 12:00 0,0 C 0 % 1001,9 hPa 0,0 l/m 0,0 km/h N -60,0 C 0,0 C 0,0 km/h
31.01.2019 13:00 0,0 C 0 % 1001,6 hPa 0,0 l/m 0,0 km/h N -60,0 C 0,0 C 0,0 km/h
31.01.2019 14:00 0,0 C 0 % 1001,0 hPa 0,0 l/m 0,0 km/h N -60,0 C 0,0 C 0,0 km/h
31.01.2019 15:00 0,0 C 0 % 1000,7 hPa 0,0 l/m 0,0 km/h N -60,0 C 0,0 C 0,0 km/h
31.01.2019 16:00 0,0 C 0 % 1000,7 hPa 0,0 l/m 0,0 km/h N -60,0 C 0,0 C 0,0 km/h
31.01.2019 17:00 0,0 C 0 % 1000,9 hPa 0,0 l/m 0,0 km/h N -60,0 C 0,0 C 0,0 km/h
31.01.2019 18:00 0,0 C 0 % 1000,9 hPa 0,0 l/m 0,0 km/h N -60,0 C 0,0 C 0,0 km/h
31.01.2019 19:00 0,0 C 0 % 1000,9 hPa 0,0 l/m 0,0 km/h N -60,0 C 0,0 C 0,0 km/h
31.01.2019 20:00 0,0 C 0 % 1000,7 hPa 0,0 l/m 0,0 km/h N -60,0 C 0,0 C 0,0 km/h
31.01.2019 21:00 0,0 C 0 % 1000,6 hPa 0,0 l/m 0,0 km/h N -60,0 C 0,0 C 0,0 km/h
31.01.2019 22:00 0,0 C 0 % 1000,6 hPa 0,0 l/m 0,0 km/h N -60,0 C 0,0 C 0,0 km/h
31.01.2019 23:00 0,0 C 0 % 1000,2 hPa 0,0 l/m 0,0 km/h N -60,0 C 0,0 C 0,0 km/h
01.02.2019 00:00 0,0 C 0 % 999,9 hPa 0,0 l/m 0,0 km/h N -60,0 C 0,0 C 0,0 km/h
01.02.2019 01:00 0,0 C 0 % 999,5 hPa 0,0 l/m 0,0 km/h N -60,0 C 0,0 C 0,0 km/h
01.02.2019 02:00 0,0 C 0 % 999,2 hPa 0,0 l/m 0,0 km/h N -60,0 C 0,0 C 0,0 km/h
01.02.2019 03:00 0,0 C 0 % 998,5 hPa 0,0 l/m 0,0 km/h N -60,0 C 0,0 C 0,0 km/h
01.02.2019 04:00 0,0 C 0 % 998,4 hPa 0,0 l/m 0,0 km/h N -60,0 C 0,0 C 0,0 km/h
01.02.2019 05:00 0,0 C 0 % 998,4 hPa 0,0 l/m 0,0 km/h N -60,0 C 0,0 C 0,0 km/h
01.02.2019 06:00 0,0 C 0 % 998,2 hPa 0,0 l/m 0,0 km/h N -60,0 C 0,0 C 0,0 km/h
01.02.2019 07:00 0,0 C 0 % 998,3 hPa 0,0 l/m 0,0 km/h N -60,0 C 0,0 C 0,0 km/h
01.02.2019 08:00 0,0 C 0 % 998,5 hPa 0,0 l/m 0,0 km/h N -60,0 C 0,0 C 0,0 km/h
01.02.2019 09:00 0,0 C 0 % 998,7 hPa 0,0 l/m 0,0 km/h N -60,0 C 0,0 C 0,0 km/h
01.02.2019 10:00 0,0 C 0 % 998,6 hPa 0,0 l/m 0,0 km/h N -60,0 C 0,0 C 0,0 km/h
01.02.2019 11:00 0,0 C 0 % 998,3 hPa 0,0 l/m 0,0 km/h N -60,0 C 0,0 C 0,0 km/h
01.02.2019 12:00 0,0 C 0 % 998,0 hPa 0,0 l/m 0,0 km/h N -60,0 C 0,0 C 0,0 km/h
01.02.2019 13:00 0,0 C 0 % 997,3 hPa 0,0 l/m 0,0 km/h N -60,0 C 0,0 C 0,0 km/h
01.02.2019 14:00 0,0 C 0 % 997,0 hPa 0,0 l/m 0,0 km/h N -60,0 C 0,0 C 0,0 km/h
01.02.2019 15:00 0,0 C 0 % 997,4 hPa 0,0 l/m 0,0 km/h N -60,0 C 0,0 C 0,0 km/h
01.02.2019 16:00 0,0 C 0 % 997,3 hPa 0,0 l/m 0,0 km/h N -60,0 C 0,0 C 0,0 km/h
01.02.2019 17:00 0,0 C 0 % 996,7 hPa 0,0 l/m 0,0 km/h N -60,0 C 0,0 C 0,0 km/h
01.02.2019 18:00 0,0 C 0 % 996,9 hPa 0,0 l/m 0,0 km/h N -60,0 C 0,0 C 0,0 km/h
01.02.2019 19:00 0,0 C 0 % 996,3 hPa 0,0 l/m 0,0 km/h N -60,0 C 0,0 C 0,0 km/h
01.02.2019 20:00 0,0 C 0 % 995,8 hPa 0,0 l/m 0,0 km/h N -60,0 C 0,0 C 0,0 km/h
01.02.2019 21:00 0,0 C 0 % 995,5 hPa 0,0 l/m 0,0 km/h N -60,0 C 0,0 C 0,0 km/h
01.02.2019 22:00 0,0 C 0 % 995,1 hPa 0,0 l/m 0,0 km/h N -60,0 C 0,0 C 0,0 km/h
01.02.2019 23:00 0,0 C 0 % 994,5 hPa 0,0 l/m 0,0 km/h N -60,0 C 0,0 C 0,0 km/h
02.02.2019 00:00 0,0 C 0 % 994,3 hPa 0,0 l/m 0,0 km/h N -60,0 C 0,0 C 0,0 km/h
02.02.2019 01:00 0,0 C 0 % 994,3 hPa 0,0 l/m 0,0 km/h N -60,0 C 0,0 C 0,0 km/h
02.02.2019 02:00 0,0 C 0 % 994,5 hPa 0,0 l/m 0,0 km/h N -60,0 C 0,0 C 0,0 km/h
02.02.2019 03:00 0,0 C 0 % 994,4 hPa 0,0 l/m 0,0 km/h N -60,0 C 0,0 C 0,0 km/h
02.02.2019 04:00 0,0 C 0 % 994,6 hPa 0,0 l/m 0,0 km/h N -60,0 C 0,0 C 0,0 km/h
02.02.2019 05:00 0,0 C 0 % 994,4 hPa 0,0 l/m 0,0 km/h N -60,0 C 0,0 C 0,0 km/h
02.02.2019 06:00 0,0 C 0 % 994,3 hPa 0,0 l/m 0,0 km/h N -60,0 C 0,0 C 0,0 km/h
02.02.2019 07:00 0,0 C 0 % 994,2 hPa 0,0 l/m 0,0 km/h N -60,0 C 0,0 C 0,0 km/h
02.02.2019 08:00 0,0 C 0 % 995,3 hPa 0,0 l/m 0,0 km/h N -60,0 C 0,0 C 0,0 km/h
02.02.2019 09:00 0,0 C 0 % 995,7 hPa 0,0 l/m 0,0 km/h N -60,0 C 0,0 C 0,0 km/h
02.02.2019 10:00 0,0 C 0 % 995,8 hPa 0,0 l/m 0,0 km/h N -60,0 C 0,0 C 0,0 km/h
02.02.2019 11:00 0,0 C 0 % 995,0 hPa 0,0 l/m 0,0 km/h N -60,0 C 0,0 C 0,0 km/h
02.02.2019 12:00 0,0 C 0 % 995,0 hPa 0,0 l/m 0,0 km/h N -60,0 C 0,0 C 0,0 km/h
02.02.2019 13:00 0,0 C 0 % 995,1 hPa 0,0 l/m 0,0 km/h N -60,0 C 0,0 C 0,0 km/h
02.02.2019 14:00 0,0 C 0 % 995,3 hPa 0,0 l/m 0,0 km/h N -60,0 C 0,0 C 0,0 km/h
02.02.2019 15:00 0,0 C 0 % 996,2 hPa 0,0 l/m 0,0 km/h N -60,0 C 0,0 C 0,0 km/h
02.02.2019 16:00 0,0 C 0 % 996,5 hPa 0,0 l/m 0,0 km/h N -60,0 C 0,0 C 0,0 km/h
02.02.2019 17:00 0,0 C 0 % 997,5 hPa 0,0 l/m 0,0 km/h N -60,0 C 0,0 C 0,0 km/h
02.02.2019 18:00 0,0 C 0 % 998,7 hPa 0,0 l/m 0,0 km/h N -60,0 C 0,0 C 0,0 km/h
02.02.2019 19:00 0,0 C 0 % 999,4 hPa 0,0 l/m 0,0 km/h N -60,0 C 0,0 C 0,0 km/h
02.02.2019 20:00 0,0 C 0 % 999,4 hPa 0,0 l/m 0,0 km/h N -60,0 C 0,0 C 0,0 km/h
02.02.2019 21:00 0,0 C 0 % 999,7 hPa 0,0 l/m 0,0 km/h N -60,0 C 0,0 C 0,0 km/h
02.02.2019 22:00 0,0 C 0 % 999,8 hPa 0,0 l/m 0,0 km/h N -60,0 C 0,0 C 0,0 km/h
02.02.2019 23:00 0,0 C 0 % 999,7 hPa 0,0 l/m 0,0 km/h N -60,0 C 0,0 C 0,0 km/h
03.02.2019 00:00 0,0 C 0 % 999,8 hPa 0,0 l/m 0,0 km/h N -60,0 C 0,0 C 0,0 km/h
03.02.2019 01:00 0,0 C 0 % 999,6 hPa 0,0 l/m 0,0 km/h N -60,0 C 0,0 C 0,0 km/h
03.02.2019 02:00 0,0 C 0 % 999,5 hPa 0,0 l/m 0,0 km/h N -60,0 C 0,0 C 0,0 km/h
03.02.2019 03:00 0,0 C 0 % 999,3 hPa 0,0 l/m 0,0 km/h N -60,0 C 0,0 C 0,0 km/h
03.02.2019 04:00 0,0 C 0 % 999,0 hPa 0,0 l/m 0,0 km/h N -60,0 C 0,0 C 0,0 km/h
03.02.2019 05:00 0,0 C 0 % 999,1 hPa 0,0 l/m 0,0 km/h N -60,0 C 0,0 C 0,0 km/h
03.02.2019 06:00 0,0 C 0 % 999,3 hPa 0,0 l/m 0,0 km/h N -60,0 C 0,0 C 0,0 km/h
03.02.2019 07:00 0,0 C 0 % 999,8 hPa 0,0 l/m 0,0 km/h N -60,0 C 0,0 C 0,0 km/h
03.02.2019 08:00 0,0 C 0 % 1000,3 hPa 0,0 l/m 0,0 km/h N -60,0 C 0,0 C 0,0 km/h
03.02.2019 09:00 0,0 C 0 % 1001,5 hPa 0,0 l/m 0,0 km/h N -60,0 C 0,0 C 0,0 km/h
03.02.2019 10:00 0,0 C 0 % 1002,8 hPa 0,0 l/m 0,0 km/h N -60,0 C 0,0 C 0,0 km/h
03.02.2019 11:00 0,0 C 0 % 1003,6 hPa 0,0 l/m 0,0 km/h N -60,0 C 0,0 C 0,0 km/h
03.02.2019 12:00 0,0 C 0 % 1004,1 hPa 0,0 l/m 0,0 km/h N -60,0 C 0,0 C 0,0 km/h
03.02.2019 13:00 0,0 C 0 % 1004,5 hPa 0,0 l/m 0,0 km/h N -60,0 C 0,0 C 0,0 km/h
03.02.2019 14:00 0,0 C 0 % 1005,1 hPa 0,0 l/m 0,0 km/h N -60,0 C 0,0 C 0,0 km/h
03.02.2019 15:00 0,0 C 0 % 1005,8 hPa 0,0 l/m 0,0 km/h N -60,0 C 0,0 C 0,0 km/h
03.02.2019 16:00 0,0 C 0 % 1006,8 hPa 0,0 l/m 0,0 km/h N -60,0 C 0,0 C 0,0 km/h
03.02.2019 17:00 0,0 C 0 % 1008,1 hPa 0,0 l/m 0,0 km/h N -60,0 C 0,0 C 0,0 km/h
03.02.2019 18:00 0,0 C 0 % 1009,7 hPa 0,0 l/m 0,0 km/h N -60,0 C 0,0 C 0,0 km/h
03.02.2019 19:00 0,0 C 0 % 1010,9 hPa 0,0 l/m 0,0 km/h N -60,0 C 0,0 C 0,0 km/h
03.02.2019 20:00 0,0 C 0 % 1012,1 hPa 0,0 l/m 0,0 km/h N -60,0 C 0,0 C 0,0 km/h
03.02.2019 21:00 0,0 C 0 % 1013,7 hPa 0,0 l/m 0,0 km/h N -60,0 C 0,0 C 0,0 km/h
03.02.2019 22:00 0,0 C 0 % 1015,0 hPa 0,0 l/m 0,0 km/h N -60,0 C 0,0 C 0,0 km/h
03.02.2019 23:00 0,0 C 0 % 1016,6 hPa 0,0 l/m 0,0 km/h N -60,0 C 0,0 C 0,0 km/h
Min-Datum _ 28.01.19 28.01.19 28.01.19 - 28.01.19 - 28.01.19 28.01.19 28.01.19
_ Min-Zeit 00:00 14:26 04:00 - 00:00 - 14:26 10:30 00:00
Minimum _ -1,9 C 0 % 993,0 hPa - 0,0 km/h - -60,0 C -6,3 C 0,0 km/h
Max-Datum _ 28.01.19 28.01.19 03.02.19 28.01.19 28.01.19 - 28.01.19 28.01.19 28.01.19
_ Max-Zeit 12:11 09:00 23:45 12:11 10:30 - 12:11 14:26 09:30
Maximum _ 3,5 C 83 % 1017,3 hPa 2,3 l/m 19,2 km/h
N
- -0,1 C 0,0 C 48,3 km/h
N
Durchschnitt _ -0,0 C 7 % 1000,0 hPa #5,2 l/m 0,5 km/h N -55,3 C -0,2 C 0,7 km/h